sensor_id;sensor_type;location;lat;lon;timestamp;temperature;humidity
13375;DHT22;6756;51.354;15.754;2023-06-04T00:02:48;3.80;99.90
13375;DHT22;6756;51.354;15.754;2023-06-04T00:06:49;3.70;99.90
13375;DHT22;6756;51.354;15.754;2023-06-04T00:10:50;3.70;99.90
13375;DHT22;6756;51.354;15.754;2023-06-04T00:14:51;3.60;99.90
13375;DHT22;6756;51.354;15.754;2023-06-04T00:18:52;3.40;99.90
13375;DHT22;6756;51.354;15.754;2023-06-04T00:22:53;3.40;99.90
13375;DHT22;6756;51.354;15.754;2023-06-04T00:26:54;3.30;99.90
13375;DHT22;6756;51.354;15.754;2023-06-04T00:30:55;3.20;99.90
13375;DHT22;6756;51.354;15.754;2023-06-04T00:34:56;3.10;99.90
13375;DHT22;6756;51.354;15.754;2023-06-04T00:39:12;3.10;99.90
13375;DHT22;6756;51.354;15.754;2023-06-04T00:43:14;3.00;99.90
13375;DHT22;6756;51.354;15.754;2023-06-04T00:47:16;2.90;99.90
13375;DHT22;6756;51.354;15.754;2023-06-04T00:51:20;2.90;99.90
13375;DHT22;6756;51.354;15.754;2023-06-04T00:55:22;2.90;99.90
13375;DHT22;6756;51.354;15.754;2023-06-04T00:59:23;2.90;99.90
13375;DHT22;6756;51.354;15.754;2023-06-04T01:03:25;2.80;99.90
13375;DHT22;6756;51.354;15.754;2023-06-04T01:07:30;2.70;99.90
13375;DHT22;6756;51.354;15.754;2023-06-04T01:11:38;2.70;99.90
13375;DHT22;6756;51.354;15.754;2023-06-04T01:15:40;2.70;99.90
13375;DHT22;6756;51.354;15.754;2023-06-04T01:23:51;2.60;99.90
13375;DHT22;6756;51.354;15.754;2023-06-04T01:28:14;2.60;99.90
13375;DHT22;6756;51.354;15.754;2023-06-04T01:32:17;2.50;1.00
13375;DHT22;6756;51.354;15.754;2023-06-04T01:36:19;2.40;1.00
13375;DHT22;6756;51.354;15.754;2023-06-04T01:40:23;2.30;1.00
13375;DHT22;6756;51.354;15.754;2023-06-04T01:44:24;2.20;1.00
13375;DHT22;6756;51.354;15.754;2023-06-04T01:48:25;2.20;1.00
13375;DHT22;6756;51.354;15.754;2023-06-04T01:52:28;2.10;1.00
13375;DHT22;6756;51.354;15.754;2023-06-04T01:56:30;2.00;1.00
13375;DHT22;6756;51.354;15.754;2023-06-04T02:00:31;2.00;1.00
13375;DHT22;6756;51.354;15.754;2023-06-04T02:04:32;1.90;1.00
13375;DHT22;6756;51.354;15.754;2023-06-04T02:08:33;1.90;1.00
13375;DHT22;6756;51.354;15.754;2023-06-04T02:12:53;1.80;1.00
13375;DHT22;6756;51.354;15.754;2023-06-04T02:16:54;1.80;1.00
13375;DHT22;6756;51.354;15.754;2023-06-04T02:21:00;1.80;4.50
13375;DHT22;6756;51.354;15.754;2023-06-04T02:25:01;1.80;22.40
13375;DHT22;6756;51.354;15.754;2023-06-04T02:29:02;1.70;39.70
13375;DHT22;6756;51.354;15.754;2023-06-04T02:33:03;1.60;63.90
13375;DHT22;6756;51.354;15.754;2023-06-04T02:37:05;1.60;96.90
13375;DHT22;6756;51.354;15.754;2023-06-04T02:41:06;1.60;99.90
13375;DHT22;6756;51.354;15.754;2023-06-04T02:45:07;1.60;99.90
13375;DHT22;6756;51.354;15.754;2023-06-04T02:49:12;1.60;99.90
13375;DHT22;6756;51.354;15.754;2023-06-04T02:53:14;1.70;99.90
13375;DHT22;6756;51.354;15.754;2023-06-04T02:57:15;1.70;99.90
13375;DHT22;6756;51.354;15.754;2023-06-04T03:01:20;1.80;99.90
13375;DHT22;6756;51.354;15.754;2023-06-04T03:05:24;1.90;99.90
13375;DHT22;6756;51.354;15.754;2023-06-04T03:09:27;2.00;99.90
13375;DHT22;6756;51.354;15.754;2023-06-04T03:13:37;2.10;99.90
13375;DHT22;6756;51.354;15.754;2023-06-04T03:17:38;2.90;99.90
13375;DHT22;6756;51.354;15.754;2023-06-04T03:21:43;4.00;99.90
13375;DHT22;6756;51.354;15.754;2023-06-04T03:25:53;4.80;1.00
13375;DHT22;6756;51.354;15.754;2023-06-04T03:29:57;5.70;99.90
13375;DHT22;6756;51.354;15.754;2023-06-04T03:33:58;6.80;99.90
13375;DHT22;6756;51.354;15.754;2023-06-04T03:38:02;7.80;64.50
13375;DHT22;6756;51.354;15.754;2023-06-04T03:42:03;8.70;1.00
13375;DHT22;6756;51.354;15.754;2023-06-04T03:46:10;9.50;1.00
13375;DHT22;6756;51.354;15.754;2023-06-04T03:50:18;10.20;1.00
13375;DHT22;6756;51.354;15.754;2023-06-04T03:54:19;10.80;1.00
13375;DHT22;6756;51.354;15.754;2023-06-04T03:58:20;11.00;1.00
13375;DHT22;6756;51.354;15.754;2023-06-04T04:02:22;11.30;1.00
13375;DHT22;6756;51.354;15.754;2023-06-04T04:06:22;12.00;1.00
13375;DHT22;6756;51.354;15.754;2023-06-04T04:10:23;12.60;1.00
13375;DHT22;6756;51.354;15.754;2023-06-04T04:14:24;13.30;1.00
13375;DHT22;6756;51.354;15.754;2023-06-04T04:18:25;13.80;1.00
13375;DHT22;6756;51.354;15.754;2023-06-04T04:22:26;14.40;1.00
13375;DHT22;6756;51.354;15.754;2023-06-04T04:26:27;14.50;1.00
13375;DHT22;6756;51.354;15.754;2023-06-04T04:30:31;14.30;1.00
13375;DHT22;6756;51.354;15.754;2023-06-04T04:34:34;13.80;1.00
13375;DHT22;6756;51.354;15.754;2023-06-04T04:38:36;13.70;1.00
13375;DHT22;6756;51.354;15.754;2023-06-04T04:42:41;13.70;1.00
13375;DHT22;6756;51.354;15.754;2023-06-04T04:46:42;13.70;1.00
13375;DHT22;6756;51.354;15.754;2023-06-04T04:50:43;13.80;1.00
13375;DHT22;6756;51.354;15.754;2023-06-04T04:54:48;13.80;1.00
13375;DHT22;6756;51.354;15.754;2023-06-04T04:58:49;13.90;1.00
13375;DHT22;6756;51.354;15.754;2023-06-04T05:02:50;14.10;1.00
13375;DHT22;6756;51.354;15.754;2023-06-04T05:06:54;14.10;1.00
13375;DHT22;6756;51.354;15.754;2023-06-04T05:10:57;13.70;1.00
13375;DHT22;6756;51.354;15.754;2023-06-04T05:14:58;13.10;1.00
13375;DHT22;6756;51.354;15.754;2023-06-04T05:19:03;12.40;1.00
13375;DHT22;6756;51.354;15.754;2023-06-04T05:23:04;11.90;1.00
13375;DHT22;6756;51.354;15.754;2023-06-04T05:27:06;11.70;1.00
13375;DHT22;6756;51.354;15.754;2023-06-04T05:31:07;11.60;1.00
13375;DHT22;6756;51.354;15.754;2023-06-04T05:35:09;11.60;1.00
13375;DHT22;6756;51.354;15.754;2023-06-04T05:39:10;11.80;1.00
13375;DHT22;6756;51.354;15.754;2023-06-04T05:43:14;12.10;1.00
13375;DHT22;6756;51.354;15.754;2023-06-04T05:47:18;12.50;1.00
13375;DHT22;6756;51.354;15.754;2023-06-04T05:51:21;12.80;1.00
13375;DHT22;6756;51.354;15.754;2023-06-04T05:55:25;13.00;1.00
13375;DHT22;6756;51.354;15.754;2023-06-04T05:59:26;13.20;1.00
13375;DHT22;6756;51.354;15.754;2023-06-04T06:03:27;13.50;1.00
13375;DHT22;6756;51.354;15.754;2023-06-04T06:07:28;13.60;1.00
13375;DHT22;6756;51.354;15.754;2023-06-04T06:11:29;13.70;1.00
13375;DHT22;6756;51.354;15.754;2023-06-04T06:15:33;13.90;1.00
13375;DHT22;6756;51.354;15.754;2023-06-04T06:19:35;14.20;1.00
13375;DHT22;6756;51.354;15.754;2023-06-04T06:23:36;14.40;1.00
13375;DHT22;6756;51.354;15.754;2023-06-04T06:27:39;14.50;1.00
13375;DHT22;6756;51.354;15.754;2023-06-04T06:31:41;14.50;1.00
13375;DHT22;6756;51.354;15.754;2023-06-04T06:35:45;14.60;1.00
13375;DHT22;6756;51.354;15.754;2023-06-04T06:39:47;14.60;1.00
13375;DHT22;6756;51.354;15.754;2023-06-04T06:43:48;14.70;1.00
13375;DHT22;6756;51.354;15.754;2023-06-04T06:47:49;14.90;1.00
13375;DHT22;6756;51.354;15.754;2023-06-04T06:51:51;15.20;1.00
13375;DHT22;6756;51.354;15.754;2023-06-04T06:55:51;15.30;1.00
13375;DHT22;6756;51.354;15.754;2023-06-04T06:59:52;15.40;1.00
13375;DHT22;6756;51.354;15.754;2023-06-04T07:03:54;15.60;1.00
13375;DHT22;6756;51.354;15.754;2023-06-04T07:07:55;15.80;1.00
13375;DHT22;6756;51.354;15.754;2023-06-04T07:11:57;15.80;1.00
13375;DHT22;6756;51.354;15.754;2023-06-04T07:15:58;16.00;1.00
13375;DHT22;6756;51.354;15.754;2023-06-04T07:19:59;16.20;1.00
13375;DHT22;6756;51.354;15.754;2023-06-04T07:24:01;16.50;1.00
13375;DHT22;6756;51.354;15.754;2023-06-04T07:28:01;16.50;1.00
13375;DHT22;6756;51.354;15.754;2023-06-04T07:32:05;16.60;1.00
13375;DHT22;6756;51.354;15.754;2023-06-04T07:36:06;16.70;1.00
13375;DHT22;6756;51.354;15.754;2023-06-04T07:40:08;16.90;1.00
13375;DHT22;6756;51.354;15.754;2023-06-04T07:44:12;17.20;1.00
13375;DHT22;6756;51.354;15.754;2023-06-04T07:48:13;17.50;1.00
13375;DHT22;6756;51.354;15.754;2023-06-04T07:52:14;17.70;1.00
13375;DHT22;6756;51.354;15.754;2023-06-04T07:56:15;18.00;1.00
13375;DHT22;6756;51.354;15.754;2023-06-04T08:00:16;18.20;1.00
13375;DHT22;6756;51.354;15.754;2023-06-04T08:04:18;18.40;1.00
13375;DHT22;6756;51.354;15.754;2023-06-04T08:08:19;18.60;1.00
13375;DHT22;6756;51.354;15.754;2023-06-04T08:12:20;18.50;1.00
13375;DHT22;6756;51.354;15.754;2023-06-04T08:16:21;18.60;1.00
13375;DHT22;6756;51.354;15.754;2023-06-04T08:20:23;18.70;1.00
13375;DHT22;6756;51.354;15.754;2023-06-04T08:24:24;18.90;1.00
13375;DHT22;6756;51.354;15.754;2023-06-04T08:28:25;19.00;1.00
13375;DHT22;6756;51.354;15.754;2023-06-04T08:32:26;19.20;1.00
13375;DHT22;6756;51.354;15.754;2023-06-04T08:36:27;19.30;1.00
13375;DHT22;6756;51.354;15.754;2023-06-04T08:40:28;19.30;1.00
13375;DHT22;6756;51.354;15.754;2023-06-04T08:44:30;19.40;1.00
13375;DHT22;6756;51.354;15.754;2023-06-04T08:48:38;19.50;1.00
13375;DHT22;6756;51.354;15.754;2023-06-04T08:52:48;19.70;1.00
13375;DHT22;6756;51.354;15.754;2023-06-04T08:56:52;19.70;1.00
13375;DHT22;6756;51.354;15.754;2023-06-04T09:00:56;19.80;1.00
13375;DHT22;6756;51.354;15.754;2023-06-04T09:04:57;19.80;1.00
13375;DHT22;6756;51.354;15.754;2023-06-04T09:09:02;20.00;1.00
13375;DHT22;6756;51.354;15.754;2023-06-04T09:13:10;19.90;1.00
13375;DHT22;6756;51.354;15.754;2023-06-04T09:17:11;19.90;1.00
13375;DHT22;6756;51.354;15.754;2023-06-04T09:21:12;19.80;1.00
13375;DHT22;6756;51.354;15.754;2023-06-04T09:25:26;19.80;1.00
13375;DHT22;6756;51.354;15.754;2023-06-04T09:29:28;19.90;1.00
13375;DHT22;6756;51.354;15.754;2023-06-04T09:33:29;20.10;1.00
13375;DHT22;6756;51.354;15.754;2023-06-04T09:37:30;20.20;1.00
13375;DHT22;6756;51.354;15.754;2023-06-04T09:41:32;20.40;1.00
13375;DHT22;6756;51.354;15.754;2023-06-04T09:45:33;20.50;1.00
13375;DHT22;6756;51.354;15.754;2023-06-04T09:49:49;20.50;1.00
13375;DHT22;6756;51.354;15.754;2023-06-04T09:53:58;20.50;1.00
13375;DHT22;6756;51.354;15.754;2023-06-04T09:58:00;20.50;1.00
13375;DHT22;6756;51.354;15.754;2023-06-04T10:02:03;20.60;1.00
13375;DHT22;6756;51.354;15.754;2023-06-04T10:06:09;20.80;1.00
13375;DHT22;6756;51.354;15.754;2023-06-04T10:10:23;21.00;1.00
13375;DHT22;6756;51.354;15.754;2023-06-04T10:14:39;21.00;1.00
13375;DHT22;6756;51.354;15.754;2023-06-04T10:18:45;21.00;1.00
13375;DHT22;6756;51.354;15.754;2023-06-04T10:22:48;21.20;1.00
13375;DHT22;6756;51.354;15.754;2023-06-04T10:26:50;21.30;1.00
13375;DHT22;6756;51.354;15.754;2023-06-04T10:30:52;21.30;1.00
13375;DHT22;6756;51.354;15.754;2023-06-04T10:34:52;21.30;1.00
13375;DHT22;6756;51.354;15.754;2023-06-04T10:38:55;21.30;1.00
13375;DHT22;6756;51.354;15.754;2023-06-04T10:43:06;21.30;1.00
13375;DHT22;6756;51.354;15.754;2023-06-04T10:51:34;21.50;1.00
13375;DHT22;6756;51.354;15.754;2023-06-04T10:55:48;21.60;1.00
13375;DHT22;6756;51.354;15.754;2023-06-04T10:59:56;21.60;1.00
13375;DHT22;6756;51.354;15.754;2023-06-04T11:03:58;21.70;1.00
13375;DHT22;6756;51.354;15.754;2023-06-04T11:08:02;21.70;1.00
13375;DHT22;6756;51.354;15.754;2023-06-04T11:12:25;21.70;1.00
13375;DHT22;6756;51.354;15.754;2023-06-04T11:16:32;21.70;1.00
13375;DHT22;6756;51.354;15.754;2023-06-04T11:20:34;21.80;1.00
13375;DHT22;6756;51.354;15.754;2023-06-04T11:24:35;22.00;1.00
13375;DHT22;6756;51.354;15.754;2023-06-04T11:28:45;22.00;1.00
13375;DHT22;6756;51.354;15.754;2023-06-04T11:33:09;22.10;1.00
13375;DHT22;6756;51.354;15.754;2023-06-04T11:37:11;22.20;1.00
13375;DHT22;6756;51.354;15.754;2023-06-04T11:41:12;22.30;1.00
13375;DHT22;6756;51.354;15.754;2023-06-04T11:45:17;22.40;1.00
13375;DHT22;6756;51.354;15.754;2023-06-04T11:49:22;22.40;1.00
13375;DHT22;6756;51.354;15.754;2023-06-04T11:53:23;22.40;1.00
13375;DHT22;6756;51.354;15.754;2023-06-04T11:57:25;22.40;1.00
13375;DHT22;6756;51.354;15.754;2023-06-04T12:01:26;22.10;1.00
13375;DHT22;6756;51.354;15.754;2023-06-04T12:05:31;22.20;1.00
13375;DHT22;6756;51.354;15.754;2023-06-04T12:09:35;22.40;1.00
13375;DHT22;6756;51.354;15.754;2023-06-04T12:13:40;22.50;1.00
13375;DHT22;6756;51.354;15.754;2023-06-04T12:17:54;22.60;1.00
13375;DHT22;6756;51.354;15.754;2023-06-04T12:22:13;22.50;1.00
13375;DHT22;6756;51.354;15.754;2023-06-04T12:26:24;22.60;1.00
13375;DHT22;6756;51.354;15.754;2023-06-04T12:30:39;22.70;1.00
13375;DHT22;6756;51.354;15.754;2023-06-04T12:34:42;22.70;1.00
13375;DHT22;6756;51.354;15.754;2023-06-04T12:38:43;22.80;1.00
13375;DHT22;6756;51.354;15.754;2023-06-04T12:42:44;22.90;1.00
13375;DHT22;6756;51.354;15.754;2023-06-04T12:46:48;22.90;1.00
13375;DHT22;6756;51.354;15.754;2023-06-04T12:51:04;23.00;1.00
13375;DHT22;6756;51.354;15.754;2023-06-04T12:55:06;22.90;1.00
13375;DHT22;6756;51.354;15.754;2023-06-04T12:59:07;23.00;1.00
13375;DHT22;6756;51.354;15.754;2023-06-04T13:03:08;23.00;1.00
13375;DHT22;6756;51.354;15.754;2023-06-04T13:07:10;23.00;1.00
13375;DHT22;6756;51.354;15.754;2023-06-04T13:11:11;23.10;1.00
13375;DHT22;6756;51.354;15.754;2023-06-04T13:15:19;23.10;1.00
13375;DHT22;6756;51.354;15.754;2023-06-04T13:19:24;23.20;1.00
13375;DHT22;6756;51.354;15.754;2023-06-04T13:23:25;23.20;1.00
13375;DHT22;6756;51.354;15.754;2023-06-04T13:27:26;23.20;1.00
13375;DHT22;6756;51.354;15.754;2023-06-04T13:31:27;23.30;1.00
13375;DHT22;6756;51.354;15.754;2023-06-04T13:35:28;23.30;1.00
13375;DHT22;6756;51.354;15.754;2023-06-04T13:39:30;23.30;1.00
13375;DHT22;6756;51.354;15.754;2023-06-04T13:43:31;23.00;1.00
13375;DHT22;6756;51.354;15.754;2023-06-04T13:47:41;22.50;1.00
13375;DHT22;6756;51.354;15.754;2023-06-04T13:51:43;22.50;1.00
13375;DHT22;6756;51.354;15.754;2023-06-04T13:55:44;22.60;1.00
13375;DHT22;6756;51.354;15.754;2023-06-04T13:59:46;22.90;1.00
13375;DHT22;6756;51.354;15.754;2023-06-04T14:03:47;22.90;1.00
13375;DHT22;6756;51.354;15.754;2023-06-04T14:07:48;22.70;1.00
13375;DHT22;6756;51.354;15.754;2023-06-04T14:11:49;22.90;1.00
13375;DHT22;6756;51.354;15.754;2023-06-04T14:15:51;23.10;1.00
13375;DHT22;6756;51.354;15.754;2023-06-04T14:19:52;23.20;1.00
13375;DHT22;6756;51.354;15.754;2023-06-04T14:23:56;23.20;1.00
13375;DHT22;6756;51.354;15.754;2023-06-04T14:27:57;23.30;1.00
13375;DHT22;6756;51.354;15.754;2023-06-04T14:31:58;23.40;1.00
13375;DHT22;6756;51.354;15.754;2023-06-04T14:36:02;23.50;1.00
13375;DHT22;6756;51.354;15.754;2023-06-04T14:40:06;23.50;1.00
13375;DHT22;6756;51.354;15.754;2023-06-04T14:44:07;23.60;1.00
13375;DHT22;6756;51.354;15.754;2023-06-04T14:48:12;23.60;1.00
13375;DHT22;6756;51.354;15.754;2023-06-04T14:52:13;23.70;1.00
13375;DHT22;6756;51.354;15.754;2023-06-04T14:56:16;23.60;1.00
13375;DHT22;6756;51.354;15.754;2023-06-04T15:00:20;23.20;1.00
13375;DHT22;6756;51.354;15.754;2023-06-04T15:04:21;23.00;1.00
13375;DHT22;6756;51.354;15.754;2023-06-04T15:08:23;23.10;1.00
13375;DHT22;6756;51.354;15.754;2023-06-04T15:12:24;23.10;1.00
13375;DHT22;6756;51.354;15.754;2023-06-04T15:16:25;23.20;1.00
13375;DHT22;6756;51.354;15.754;2023-06-04T15:20:26;23.30;1.00
13375;DHT22;6756;51.354;15.754;2023-06-04T15:24:29;23.40;1.00
13375;DHT22;6756;51.354;15.754;2023-06-04T15:28:33;23.30;1.00
13375;DHT22;6756;51.354;15.754;2023-06-04T15:32:37;23.40;1.00
13375;DHT22;6756;51.354;15.754;2023-06-04T15:36:38;23.40;1.00
13375;DHT22;6756;51.354;15.754;2023-06-04T15:40:39;23.40;1.00
13375;DHT22;6756;51.354;15.754;2023-06-04T15:44:40;23.50;1.00
13375;DHT22;6756;51.354;15.754;2023-06-04T15:48:42;23.50;1.00
13375;DHT22;6756;51.354;15.754;2023-06-04T15:52:43;23.40;1.00
13375;DHT22;6756;51.354;15.754;2023-06-04T15:56:44;23.20;1.00
13375;DHT22;6756;51.354;15.754;2023-06-04T16:00:48;23.20;1.00
13375;DHT22;6756;51.354;15.754;2023-06-04T16:04:52;23.10;1.00
13375;DHT22;6756;51.354;15.754;2023-06-04T16:08:53;23.10;1.00
13375;DHT22;6756;51.354;15.754;2023-06-04T16:12:54;23.20;1.00
13375;DHT22;6756;51.354;15.754;2023-06-04T16:16:55;23.30;1.00
13375;DHT22;6756;51.354;15.754;2023-06-04T16:20:56;23.40;1.00
13375;DHT22;6756;51.354;15.754;2023-06-04T16:24:57;23.30;1.00
13375;DHT22;6756;51.354;15.754;2023-06-04T16:28:58;23.20;1.00
13375;DHT22;6756;51.354;15.754;2023-06-04T16:32:59;23.20;1.00
13375;DHT22;6756;51.354;15.754;2023-06-04T16:37:00;23.10;1.00
13375;DHT22;6756;51.354;15.754;2023-06-04T16:41:01;23.00;1.00
13375;DHT22;6756;51.354;15.754;2023-06-04T16:45:03;22.90;1.00
13375;DHT22;6756;51.354;15.754;2023-06-04T16:49:04;22.90;1.00
13375;DHT22;6756;51.354;15.754;2023-06-04T16:53:06;22.80;1.00
13375;DHT22;6756;51.354;15.754;2023-06-04T16:57:08;22.80;1.00
13375;DHT22;6756;51.354;15.754;2023-06-04T17:01:09;22.80;1.00
13375;DHT22;6756;51.354;15.754;2023-06-04T17:05:10;22.70;1.00
13375;DHT22;6756;51.354;15.754;2023-06-04T17:09:12;22.70;1.00
13375;DHT22;6756;51.354;15.754;2023-06-04T17:13:15;22.70;1.00
13375;DHT22;6756;51.354;15.754;2023-06-04T17:17:16;23.10;1.00
13375;DHT22;6756;51.354;15.754;2023-06-04T17:21:18;23.80;1.00
13375;DHT22;6756;51.354;15.754;2023-06-04T17:25:30;24.30;1.00
13375;DHT22;6756;51.354;15.754;2023-06-04T17:29:31;24.80;1.00
13375;DHT22;6756;51.354;15.754;2023-06-04T17:33:32;25.20;1.00
13375;DHT22;6756;51.354;15.754;2023-06-04T17:37:33;25.80;1.00
13375;DHT22;6756;51.354;15.754;2023-06-04T17:41:34;26.10;1.00
13375;DHT22;6756;51.354;15.754;2023-06-04T17:45:35;26.40;1.00
13375;DHT22;6756;51.354;15.754;2023-06-04T17:49:36;26.70;1.00
13375;DHT22;6756;51.354;15.754;2023-06-04T17:53:37;26.70;1.00
13375;DHT22;6756;51.354;15.754;2023-06-04T17:57:38;26.70;1.00
13375;DHT22;6756;51.354;15.754;2023-06-04T18:01:39;26.60;1.00
13375;DHT22;6756;51.354;15.754;2023-06-04T18:05:40;26.40;1.00
13375;DHT22;6756;51.354;15.754;2023-06-04T18:09:41;26.30;1.00
13375;DHT22;6756;51.354;15.754;2023-06-04T18:13:42;26.00;1.00
13375;DHT22;6756;51.354;15.754;2023-06-04T18:17:46;25.70;1.00
13375;DHT22;6756;51.354;15.754;2023-06-04T18:21:47;25.40;1.00
13375;DHT22;6756;51.354;15.754;2023-06-04T18:25:48;25.20;1.00
13375;DHT22;6756;51.354;15.754;2023-06-04T18:29:49;24.90;1.00
13375;DHT22;6756;51.354;15.754;2023-06-04T18:33:54;24.60;1.00
13375;DHT22;6756;51.354;15.754;2023-06-04T18:38:00;24.20;1.00
13375;DHT22;6756;51.354;15.754;2023-06-04T18:42:04;23.60;1.00
13375;DHT22;6756;51.354;15.754;2023-06-04T18:46:05;23.00;1.00
13375;DHT22;6756;51.354;15.754;2023-06-04T18:50:07;22.40;1.00
13375;DHT22;6756;51.354;15.754;2023-06-04T18:54:09;21.50;1.00
13375;DHT22;6756;51.354;15.754;2023-06-04T18:58:10;20.40;1.00
13375;DHT22;6756;51.354;15.754;2023-06-04T19:02:11;19.50;1.00
13375;DHT22;6756;51.354;15.754;2023-06-04T19:06:14;18.60;1.00
13375;DHT22;6756;51.354;15.754;2023-06-04T19:10:16;17.90;1.00
13375;DHT22;6756;51.354;15.754;2023-06-04T19:14:17;17.30;1.00
13375;DHT22;6756;51.354;15.754;2023-06-04T19:18:24;16.80;1.00
13375;DHT22;6756;51.354;15.754;2023-06-04T19:22:25;16.30;1.00
13375;DHT22;6756;51.354;15.754;2023-06-04T19:26:32;15.90;1.00
13375;DHT22;6756;51.354;15.754;2023-06-04T19:30:36;15.50;1.00
13375;DHT22;6756;51.354;15.754;2023-06-04T19:34:37;15.20;1.00
13375;DHT22;6756;51.354;15.754;2023-06-04T19:38:39;14.90;1.00
13375;DHT22;6756;51.354;15.754;2023-06-04T19:42:42;14.60;1.00
13375;DHT22;6756;51.354;15.754;2023-06-04T19:46:43;14.30;1.00
13375;DHT22;6756;51.354;15.754;2023-06-04T19:50:47;14.00;1.00
13375;DHT22;6756;51.354;15.754;2023-06-04T19:54:48;13.80;1.00
13375;DHT22;6756;51.354;15.754;2023-06-04T19:58:53;13.50;1.00
13375;DHT22;6756;51.354;15.754;2023-06-04T20:02:55;13.30;1.00
13375;DHT22;6756;51.354;15.754;2023-06-04T20:06:56;13.10;1.00
13375;DHT22;6756;51.354;15.754;2023-06-04T20:10:58;12.90;1.00
13375;DHT22;6756;51.354;15.754;2023-06-04T20:15:05;12.80;1.00
13375;DHT22;6756;51.354;15.754;2023-06-04T20:19:09;12.60;1.00
13375;DHT22;6756;51.354;15.754;2023-06-04T20:23:12;12.40;1.00
13375;DHT22;6756;51.354;15.754;2023-06-04T20:27:13;12.20;1.00
13375;DHT22;6756;51.354;15.754;2023-06-04T20:31:20;12.00;1.00
13375;DHT22;6756;51.354;15.754;2023-06-04T20:35:21;11.90;1.00
13375;DHT22;6756;51.354;15.754;2023-06-04T20:39:23;11.70;1.00
13375;DHT22;6756;51.354;15.754;2023-06-04T20:43:47;11.60;1.00
13375;DHT22;6756;51.354;15.754;2023-06-04T20:47:49;11.40;1.00
13375;DHT22;6756;51.354;15.754;2023-06-04T20:51:50;11.20;1.00
13375;DHT22;6756;51.354;15.754;2023-06-04T20:55:53;11.00;1.00
13375;DHT22;6756;51.354;15.754;2023-06-04T20:59:54;10.90;1.00
13375;DHT22;6756;51.354;15.754;2023-06-04T21:03:58;10.80;1.00
13375;DHT22;6756;51.354;15.754;2023-06-04T21:08:01;10.60;1.00
13375;DHT22;6756;51.354;15.754;2023-06-04T21:12:02;10.40;1.00
13375;DHT22;6756;51.354;15.754;2023-06-04T21:16:03;10.30;1.00
13375;DHT22;6756;51.354;15.754;2023-06-04T21:20:08;10.20;1.00
13375;DHT22;6756;51.354;15.754;2023-06-04T21:24:09;10.10;1.00
13375;DHT22;6756;51.354;15.754;2023-06-04T21:28:10;10.00;1.00
13375;DHT22;6756;51.354;15.754;2023-06-04T21:32:11;9.90;1.00
13375;DHT22;6756;51.354;15.754;2023-06-04T21:36:13;9.70;1.00
13375;DHT22;6756;51.354;15.754;2023-06-04T21:40:15;9.60;1.00
13375;DHT22;6756;51.354;15.754;2023-06-04T21:44:19;9.40;1.00
13375;DHT22;6756;51.354;15.754;2023-06-04T21:48:21;9.30;1.00
13375;DHT22;6756;51.354;15.754;2023-06-04T21:52:22;9.20;1.00
13375;DHT22;6756;51.354;15.754;2023-06-04T21:56:25;9.10;1.00
13375;DHT22;6756;51.354;15.754;2023-06-04T22:00:30;9.00;1.00
13375;DHT22;6756;51.354;15.754;2023-06-04T22:04:31;8.90;1.00
13375;DHT22;6756;51.354;15.754;2023-06-04T22:08:32;8.90;1.00
13375;DHT22;6756;51.354;15.754;2023-06-04T22:12:34;8.80;1.00
13375;DHT22;6756;51.354;15.754;2023-06-04T22:16:35;8.60;1.00
13375;DHT22;6756;51.354;15.754;2023-06-04T22:20:40;8.50;1.00
13375;DHT22;6756;51.354;15.754;2023-06-04T22:24:41;8.40;7.10
13375;DHT22;6756;51.354;15.754;2023-06-04T22:28:42;8.30;11.50
13375;DHT22;6756;51.354;15.754;2023-06-04T22:32:47;8.20;16.60
13375;DHT22;6756;51.354;15.754;2023-06-04T22:36:48;8.00;21.00
13375;DHT22;6756;51.354;15.754;2023-06-04T22:40:49;7.90;26.50
13375;DHT22;6756;51.354;15.754;2023-06-04T22:44:50;7.90;33.60
13375;DHT22;6756;51.354;15.754;2023-06-04T22:48:55;7.80;42.70
13375;DHT22;6756;51.354;15.754;2023-06-04T22:53:05;7.70;48.40
13375;DHT22;6756;51.354;15.754;2023-06-04T22:57:09;7.70;53.90
13375;DHT22;6756;51.354;15.754;2023-06-04T23:01:10;7.60;58.00
13375;DHT22;6756;51.354;15.754;2023-06-04T23:05:20;7.60;59.00
13375;DHT22;6756;51.354;15.754;2023-06-04T23:09:22;7.50;57.60
13375;DHT22;6756;51.354;15.754;2023-06-04T23:13:26;7.50;58.40
13375;DHT22;6756;51.354;15.754;2023-06-04T23:17:27;7.40;65.10
13375;DHT22;6756;51.354;15.754;2023-06-04T23:21:29;7.30;73.00
13375;DHT22;6756;51.354;15.754;2023-06-04T23:25:33;7.20;81.90
13375;DHT22;6756;51.354;15.754;2023-06-04T23:29:38;7.20;89.10
13375;DHT22;6756;51.354;15.754;2023-06-04T23:33:39;7.20;93.20
13375;DHT22;6756;51.354;15.754;2023-06-04T23:37:40;7.10;96.90
13375;DHT22;6756;51.354;15.754;2023-06-04T23:41:41;7.00;99.90
13375;DHT22;6756;51.354;15.754;2023-06-04T23:45:42;6.90;99.90
13375;DHT22;6756;51.354;15.754;2023-06-04T23:49:43;6.80;99.90
13375;DHT22;6756;51.354;15.754;2023-06-04T23:53:44;6.80;99.90
13375;DHT22;6756;51.354;15.754;2023-06-04T23:57:46;6.70;99.90
